Time;durP1;ratioP1;P1;durP2;ratioP2;P2;SDS_P1;SDS_P2;PMS_P1;PMS_P2;Temp;Humidity;BMP_temperature;BMP_pressure;BME280_temperature;BME280_humidity;BME280_pressure;Samples;Min_cycle;Max_cycle;Signal;HPM_P1;HPM_P2
2022/07/10 00:00:00;;;;;;;3.90;1.30;;;;;;;;;;4878621;29;20073;-62
2022/07/10 00:02:25;;;;;;;4.82;1.30;;;;;;;;;;4881843;29;20056;-61
2022/07/10 00:04:50;;;;;;;4.70;1.52;;;;;;;;;;4880440;29;20124;-60
2022/07/10 00:07:16;;;;;;;5.80;1.30;;;;;;;;;;4886038;29;20496;-62
2022/07/10 00:09:41;;;;;;;6.45;1.40;;;;;;;;;;4880074;29;20036;-61
2022/07/10 00:12:07;;;;;;;2.88;1.10;;;;;;;;;;4887471;29;20450;-61
2022/07/10 00:14:32;;;;;;;4.80;1.42;;;;;;;;;;4881220;29;20040;-61
2022/07/10 00:16:58;;;;;;;5.47;1.42;;;;;;;;;;4885451;29;20525;-61
2022/07/10 00:19:23;;;;;;;4.53;1.20;;;;;;;;;;4879393;29;20435;-61
2022/07/10 00:21:48;;;;;;;7.38;1.30;;;;;;;;;;4878974;29;20029;-61
2022/07/10 00:24:14;;;;;;;4.10;1.35;;;;;;;;;;4877114;29;20033;-61
2022/07/10 00:26:39;;;;;;;5.00;1.67;;;;;;;;;;4879084;29;20036;-61
2022/07/10 00:29:05;;;;;;;6.07;1.35;;;;;;;;;;4896287;29;20112;-61
2022/07/10 00:31:30;;;;;;;6.45;1.40;;;;;;;;;;4890400;29;20084;-61
2022/07/10 00:33:56;;;;;;;5.15;1.67;;;;;;;;;;4893981;29;20060;-61
2022/07/10 00:36:21;;;;;;;6.28;1.45;;;;;;;;;;4877432;29;20029;-61
2022/07/10 00:38:47;;;;;;;6.47;1.77;;;;;;;;;;4879234;29;20041;-62
2022/07/10 00:41:12;;;;;;;4.30;1.50;;;;;;;;;;4878138;29;20033;-61
2022/07/10 00:43:53;;;;;;;3.60;1.13;;;;;;;;;;4879424;29;20029;-61
2022/07/10 00:46:22;;;;;;;7.00;1.60;;;;;;;;;;4876075;29;20041;-62
2022/07/10 00:48:50;;;;;;;7.03;1.30;;;;;;;;;;4887194;29;20043;-62
2022/07/10 00:51:18;;;;;;;4.45;1.60;;;;;;;;;;4876244;29;20649;-62
2022/07/10 00:53:48;;;;;;;5.70;1.80;;;;;;;;;;4877350;29;20101;-61
2022/07/10 00:56:19;;;;;;;6.60;1.60;;;;;;;;;;4876982;29;20089;-62
2022/07/10 00:58:46;;;;;;;5.32;1.58;;;;;;;;;;4879263;29;20071;-62
2022/07/10 01:01:11;;;;;;;4.47;1.42;;;;;;;;;;4861507;29;20029;-62
2022/07/10 01:03:37;;;;;;;4.53;1.40;;;;;;;;;;4894742;29;20041;-61
2022/07/10 01:06:03;;;;;;;5.53;1.65;;;;;;;;;;4877852;29;20044;-61
2022/07/10 01:08:29;;;;;;;5.93;1.98;;;;;;;;;;4878775;29;20466;-61
2022/07/10 01:10:54;;;;;;;5.18;1.70;;;;;;;;;;4880738;29;20032;-61
2022/07/10 01:13:20;;;;;;;4.35;1.55;;;;;;;;;;4883993;29;20403;-61
2022/07/10 01:15:46;;;;;;;3.67;1.48;;;;;;;;;;4878561;29;20072;-61
2022/07/10 01:18:13;;;;;;;4.72;1.77;;;;;;;;;;4878083;29;20045;-62
2022/07/10 01:20:38;;;;;;;4.30;1.50;;;;;;;;;;4862740;29;20044;-62
2022/07/10 01:23:03;;;;;;;8.40;1.70;;;;;;;;;;4874481;29;20047;-63
2022/07/10 01:25:29;;;;;;;5.05;1.60;;;;;;;;;;4865484;29;20036;-65
2022/07/10 01:27:54;;;;;;;4.20;1.83;;;;;;;;;;4891274;29;20036;-62
2022/07/10 01:30:20;;;;;;;5.72;1.70;;;;;;;;;;4889088;29;20085;-61
2022/07/10 01:32:47;;;;;;;4.70;1.58;;;;;;;;;;4878062;29;20055;-66
2022/07/10 01:35:13;;;;;;;5.90;1.65;;;;;;;;;;4876959;29;20112;-63
2022/07/10 01:37:40;;;;;;;4.68;1.65;;;;;;;;;;4882274;29;20048;-63
2022/07/10 01:40:06;;;;;;;7.15;1.80;;;;;;;;;;4888824;29;20037;-62
2022/07/10 01:42:32;;;;;;;7.57;1.80;;;;;;;;;;4884183;29;20094;-62
2022/07/10 01:44:57;;;;;;;5.35;1.77;;;;;;;;;;4877582;29;20431;-63
2022/07/10 01:47:24;;;;;;;12.48;2.10;;;;;;;;;;4876554;29;20033;-62
2022/07/10 01:49:51;;;;;;;5.40;1.70;;;;;;;;;;4878546;29;20037;-62
2022/07/10 01:52:16;;;;;;;4.88;2.00;;;;;;;;;;4875686;29;20049;-62
2022/07/10 01:54:42;;;;;;;4.72;1.85;;;;;;;;;;4891871;29;20466;-62
2022/07/10 01:57:07;;;;;;;6.78;1.85;;;;;;;;;;4878565;29;20033;-62
2022/07/10 01:59:33;;;;;;;8.93;1.90;;;;;;;;;;4878577;29;20036;-62
2022/07/10 02:01:58;;;;;;;5.18;1.75;;;;;;;;;;4882524;29;20045;-62
2022/07/10 02:04:41;;;;;;;9.05;1.85;;;;;;;;;;4881007;29;20033;-65
2022/07/10 02:07:15;;;;;;;4.60;1.88;;;;;;;;;;4881437;29;20114;-62
2022/07/10 02:09:41;;;;;;;5.18;1.70;;;;;;;;;;4889238;29;20066;-63
2022/07/10 02:12:13;;;;;;;3.60;1.40;;;;;;;;;;4883815;29;20072;-62
2022/07/10 02:14:38;;;;;;;6.80;1.80;;;;;;;;;;4889423;29;20104;-61
2022/07/10 02:17:05;;;;;;;6.43;1.90;;;;;;;;;;4884277;29;20462;-61
2022/07/10 02:19:30;;;;;;;8.52;1.80;;;;;;;;;;4868713;29;20037;-63
2022/07/10 02:21:56;;;;;;;6.97;1.67;;;;;;;;;;4878087;29;20533;-62
2022/07/10 02:24:21;;;;;;;6.47;1.73;;;;;;;;;;4878918;29;20149;-62
2022/07/10 02:26:48;;;;;;;6.88;1.70;;;;;;;;;;4875836;29;20029;-61
2022/07/10 02:29:13;;;;;;;8.45;1.67;;;;;;;;;;4877050;29;20116;-61
2022/07/10 02:31:40;;;;;;;4.00;1.63;;;;;;;;;;4877015;29;20422;-62
2022/07/10 02:34:15;;;;;;;5.80;1.73;;;;;;;;;;4876074;29;20040;-62
2022/07/10 02:36:40;;;;;;;6.28;1.80;;;;;;;;;;4875642;29;20060;-62
2022/07/10 02:39:07;;;;;;;6.05;1.77;;;;;;;;;;4878296;29;20471;-63
2022/07/10 02:41:32;;;;;;;5.75;2.00;;;;;;;;;;4875961;29;20045;-62
2022/07/10 02:43:58;;;;;;;6.05;1.83;;;;;;;;;;4892917;29;20032;-60
2022/07/10 02:46:24;;;;;;;5.68;1.80;;;;;;;;;;4875411;29;20084;-62
2022/07/10 02:48:50;;;;;;;5.50;1.80;;;;;;;;;;4888172;29;20421;-61
2022/07/10 02:51:15;;;;;;;5.57;1.80;;;;;;;;;;4881693;29;20029;-61
2022/07/10 02:53:41;;;;;;;8.15;1.80;;;;;;;;;;4887375;29;20101;-61
2022/07/10 02:56:07;;;;;;;8.43;2.10;;;;;;;;;;4886694;29;20047;-62
2022/07/10 02:58:33;;;;;;;13.00;2.10;;;;;;;;;;4860828;29;20531;-61
2022/07/10 03:00:58;;;;;;;4.75;1.60;;;;;;;;;;4873964;29;20044;-61
2022/07/10 03:03:24;;;;;;;6.57;1.80;;;;;;;;;;4875113;29;20606;-61
2022/07/10 03:05:49;;;;;;;5.07;1.60;;;;;;;;;;4887636;29;20036;-61
2022/07/10 03:08:15;;;;;;;5.55;1.60;;;;;;;;;;4875847;29;20461;-61
2022/07/10 03:10:40;;;;;;;6.00;1.73;;;;;;;;;;4885922;29;20106;-61
2022/07/10 03:13:06;;;;;;;5.50;1.88;;;;;;;;;;4875702;29;20484;-62
2022/07/10 03:15:32;;;;;;;6.75;1.70;;;;;;;;;;4887838;29;20064;-62
2022/07/10 03:17:58;;;;;;;7.78;2.00;;;;;;;;;;4879493;29;20113;-62
2022/07/10 03:20:23;;;;;;;6.78;1.80;;;;;;;;;;4874400;29;20694;-62
2022/07/10 03:22:49;;;;;;;5.93;1.90;;;;;;;;;;4876029;29;20123;-62
2022/07/10 03:25:15;;;;;;;5.95;1.83;;;;;;;;;;4877818;29;20085;-61
2022/07/10 03:27:40;;;;;;;7.18;1.80;;;;;;;;;;4876231;29;20510;-61
2022/07/10 03:30:06;;;;;;;7.30;1.80;;;;;;;;;;4876228;29;20497;-61
2022/07/10 03:32:32;;;;;;;11.07;1.88;;;;;;;;;;4873812;29;20454;-61
2022/07/10 03:34:58;;;;;;;8.85;1.90;;;;;;;;;;4877034;29;20040;-62
2022/07/10 03:37:23;;;;;;;6.47;1.90;;;;;;;;;;4881856;29;20056;-62
2022/07/10 03:39:49;;;;;;;7.03;2.08;;;;;;;;;;4859623;29;20128;-61
2022/07/10 03:42:14;;;;;;;6.50;2.00;;;;;;;;;;4867530;29;20033;-62
2022/07/10 03:44:40;;;;;;;6.43;2.08;;;;;;;;;;4874891;29;20037;-61
2022/07/10 03:47:05;;;;;;;6.05;1.80;;;;;;;;;;4874164;29;20124;-62
2022/07/10 03:49:31;;;;;;;5.63;1.92;;;;;;;;;;4876368;29;20390;-62
2022/07/10 03:52:03;;;;;;;6.35;1.77;;;;;;;;;;4874541;29;20053;-61
2022/07/10 03:54:29;;;;;;;9.82;2.10;;;;;;;;;;4875699;29;20497;-61
2022/07/10 03:59:40;;;;;;;8.48;1.70;;;;;;;;;;4873636;29;20044;-61
2022/07/10 04:02:06;;;;;;;8.27;1.90;;;;;;;;;;4874928;29;20474;-61
2022/07/10 04:04:32;;;;;;;8.23;2.60;;;;;;;;;;4876087;29;20112;-61
2022/07/10 04:06:57;;;;;;;4.15;1.80;;;;;;;;;;4875718;29;20406;-62
2022/07/10 04:09:23;;;;;;;4.20;1.83;;;;;;;;;;4876565;29;20065;-62
2022/07/10 04:11:48;;;;;;;6.10;1.75;;;;;;;;;;4884294;29;20032;-62
2022/07/10 04:14:14;;;;;;;9.68;1.85;;;;;;;;;;4876098;29;20044;-62
2022/07/10 04:16:39;;;;;;;7.65;1.90;;;;;;;;;;4887127;29;20043;-61
2022/07/10 04:19:04;;;;;;;5.57;1.95;;;;;;;;;;4887474;29;20033;-61
2022/07/10 04:21:30;;;;;;;7.28;1.70;;;;;;;;;;4889842;29;20608;-61
2022/07/10 04:23:55;;;;;;;7.63;2.00;;;;;;;;;;4887404;29;20051;-61
2022/07/10 04:26:21;;;;;;;7.00;1.98;;;;;;;;;;4883109;29;20455;-61
2022/07/10 04:28:46;;;;;;;5.63;1.90;;;;;;;;;;4889727;29;20210;-62
2022/07/10 04:31:11;;;;;;;5.32;1.83;;;;;;;;;;4891823;29;20065;-62
2022/07/10 04:33:37;;;;;;;7.97;2.78;;;;;;;;;;4899551;29;20033;-62
2022/07/10 04:36:02;;;;;;;7.07;2.60;;;;;;;;;;4897456;29;20041;-61
2022/07/10 04:38:28;;;;;;;4.38;1.80;;;;;;;;;;4898722;29;20304;-61
2022/07/10 04:40:54;;;;;;;5.55;1.90;;;;;;;;;;4894300;29;20040;-61
2022/07/10 04:43:19;;;;;;;5.60;2.03;;;;;;;;;;4898492;29;20040;-61
2022/07/10 04:45:45;;;;;;;5.05;1.80;;;;;;;;;;4896059;29;20036;-62
2022/07/10 04:48:10;;;;;;;7.38;2.00;;;;;;;;;;4898653;29;20048;-62
2022/07/10 04:50:36;;;;;;;6.38;2.15;;;;;;;;;;4896842;29;20067;-62
2022/07/10 04:53:01;;;;;;;5.95;1.88;;;;;;;;;;4899384;29;20053;-60
2022/07/10 04:55:27;;;;;;;7.03;1.80;;;;;;;;;;4877875;29;20127;-60
2022/07/10 04:57:52;;;;;;;4.40;1.90;;;;;;;;;;4887210;29;20033;-62
2022/07/10 05:00:19;;;;;;;7.03;1.95;;;;;;;;;;4887132;29;20045;-62
2022/07/10 05:02:44;;;;;;;6.97;2.10;;;;;;;;;;4898824;29;20445;-62
2022/07/10 05:05:09;;;;;;;6.82;1.92;;;;;;;;;;4896483;29;20112;-62
2022/07/10 05:07:35;;;;;;;8.45;2.10;;;;;;;;;;4891338;29;20108;-62
2022/07/10 05:10:00;;;;;;;5.18;1.83;;;;;;;;;;4884561;29;20036;-61
2022/07/10 05:12:26;;;;;;;9.20;2.13;;;;;;;;;;4896560;29;20116;-62
2022/07/10 05:14:51;;;;;;;9.30;2.20;;;;;;;;;;4887087;29;20124;-61
2022/07/10 05:17:17;;;;;;;4.13;1.90;;;;;;;;;;4880764;29;20036;-62
2022/07/10 05:19:43;;;;;;;10.05;2.05;;;;;;;;;;4896380;29;20452;-62
2022/07/10 05:22:09;;;;;;;5.93;1.88;;;;;;;;;;4894571;29;20040;-63
2022/07/10 05:24:34;;;;;;;8.07;2.00;;;;;;;;;;4896635;29;20852;-62
2022/07/10 05:27:00;;;;;;;6.47;1.90;;;;;;;;;;4896448;29;20028;-63
2022/07/10 05:29:25;;;;;;;8.30;1.90;;;;;;;;;;4889312;29;20539;-63
2022/07/10 05:31:50;;;;;;;7.63;1.85;;;;;;;;;;4884805;29;20029;-61
2022/07/10 05:34:16;;;;;;;11.85;2.00;;;;;;;;;;4862391;29;20037;-63
2022/07/10 05:36:41;;;;;;;8.05;2.22;;;;;;;;;;4894755;29;20047;-62
2022/07/10 05:39:06;;;;;;;7.75;1.90;;;;;;;;;;4898493;29;20502;-62
2022/07/10 05:41:32;;;;;;;5.35;1.88;;;;;;;;;;4877509;29;20262;-62
2022/07/10 05:43:59;;;;;;;9.77;1.98;;;;;;;;;;4896589;29;20140;-62
2022/07/10 05:46:25;;;;;;;5.32;2.10;;;;;;;;;;4896496;29;20028;-62
2022/07/10 05:48:50;;;;;;;9.38;2.10;;;;;;;;;;4885470;29;20488;-61
2022/07/10 05:51:16;;;;;;;5.70;1.73;;;;;;;;;;4889513;29;20118;-62
2022/07/10 05:53:41;;;;;;;5.50;1.50;;;;;;;;;;4896083;29;20080;-63
2022/07/10 05:56:06;;;;;;;9.13;1.98;;;;;;;;;;4897976;29;20048;-61
2022/07/10 05:58:32;;;;;;;7.57;1.60;;;;;;;;;;4895390;29;20032;-62
2022/07/10 06:00:57;;;;;;;4.75;1.83;;;;;;;;;;4895524;29;20477;-63
2022/07/10 06:03:23;;;;;;;5.72;1.75;;;;;;;;;;4897281;29;20040;-63
2022/07/10 06:05:48;;;;;;;10.18;1.85;;;;;;;;;;4886343;29;20466;-61
2022/07/10 06:08:14;;;;;;;5.68;1.35;;;;;;;;;;4878873;29;20089;-63
2022/07/10 06:10:43;;;;;;;6.10;1.38;;;;;;;;;;4888377;29;20067;-62
2022/07/10 06:13:10;;;;;;;10.23;1.88;;;;;;;;;;4897656;29;20140;-61
2022/07/10 06:15:35;;;;;;;6.55;1.40;;;;;;;;;;4891873;29;20037;-62
2022/07/10 06:18:01;;;;;;;5.68;1.55;;;;;;;;;;4897795;29;20039;-62
2022/07/10 06:20:26;;;;;;;6.75;1.58;;;;;;;;;;4867975;29;20032;-62
2022/07/10 06:22:52;;;;;;;7.47;1.90;;;;;;;;;;4883487;29;20040;-62
2022/07/10 06:25:17;;;;;;;6.97;1.75;;;;;;;;;;4896854;29;20139;-64
2022/07/10 06:27:43;;;;;;;7.15;1.70;;;;;;;;;;4896306;29;20462;-62
2022/07/10 06:30:09;;;;;;;6.20;1.40;;;;;;;;;;4894403;29;20056;-62
2022/07/10 06:32:34;;;;;;;5.30;1.38;;;;;;;;;;4896363;29;20164;-62
2022/07/10 06:35:00;;;;;;;8.00;1.50;;;;;;;;;;4872253;29;20390;-62
2022/07/10 06:37:25;;;;;;;7.47;1.50;;;;;;;;;;4896330;29;20044;-62
2022/07/10 06:39:51;;;;;;;7.88;1.88;;;;;;;;;;4892549;29;20028;-62
2022/07/10 06:42:16;;;;;;;5.55;1.50;;;;;;;;;;4894236;29;20447;-64
2022/07/10 06:44:42;;;;;;;5.95;1.40;;;;;;;;;;4862410;29;20037;-63
2022/07/10 06:49:54;;;;;;;6.60;1.60;;;;;;;;;;4880655;29;20145;-62
2022/07/10 06:52:20;;;;;;;5.03;1.40;;;;;;;;;;4892183;29;20128;-63
2022/07/10 06:54:46;;;;;;;6.78;1.80;;;;;;;;;;4888602;29;20040;-63
2022/07/10 06:57:12;;;;;;;5.28;1.60;;;;;;;;;;4877779;29;20371;-63
2022/07/10 06:59:37;;;;;;;7.35;1.67;;;;;;;;;;4881048;29;20089;-62
2022/07/10 07:02:03;;;;;;;5.50;1.52;;;;;;;;;;4882565;29;20397;-64
2022/07/10 07:04:28;;;;;;;5.82;1.50;;;;;;;;;;4888728;29;20033;-62
2022/07/10 07:06:54;;;;;;;7.72;1.52;;;;;;;;;;4884975;29;20045;-63
2022/07/10 07:09:19;;;;;;;5.35;1.70;;;;;;;;;;4896406;29;20040;-63
2022/07/10 07:11:45;;;;;;;7.20;1.80;;;;;;;;;;4891525;29;20032;-64
2022/07/10 07:14:11;;;;;;;7.72;1.83;;;;;;;;;;4885978;29;20442;-63
2022/07/10 07:16:42;;;;;;;6.53;1.60;;;;;;;;;;4892259;29;20105;-63
2022/07/10 07:19:09;;;;;;;7.90;1.70;;;;;;;;;;4896201;29;20088;-62
2022/07/10 07:24:19;;;;;;;6.40;1.40;;;;;;;;;;4879188;29;20097;-64
2022/07/10 07:26:47;;;;;;;7.50;1.60;;;;;;;;;;4891141;29;20036;-65
2022/07/10 07:29:15;;;;;;;4.47;1.42;;;;;;;;;;4877120;29;20474;-64
2022/07/10 07:31:41;;;;;;;8.02;1.70;;;;;;;;;;4876543;29;20072;-63
2022/07/10 07:34:07;;;;;;;5.70;1.40;;;;;;;;;;4875405;29;20455;-64
2022/07/10 07:36:32;;;;;;;8.70;1.50;;;;;;;;;;4880483;29;20043;-64
2022/07/10 07:38:58;;;;;;;9.10;1.60;;;;;;;;;;4877384;29;20032;-64
2022/07/10 07:41:23;;;;;;;8.57;1.77;;;;;;;;;;4895679;29;20462;-64
2022/07/10 07:43:49;;;;;;;8.68;1.55;;;;;;;;;;4894759;29;20036;-63
2022/07/10 07:46:14;;;;;;;6.32;1.73;;;;;;;;;;4892607;29;20116;-63
2022/07/10 07:48:40;;;;;;;11.48;2.22;;;;;;;;;;4877707;29;20605;-63
2022/07/10 07:51:05;;;;;;;8.80;1.75;;;;;;;;;;4892688;29;20037;-63
2022/07/10 07:53:31;;;;;;;6.35;1.73;;;;;;;;;;4895749;29;20481;-62
2022/07/10 07:55:56;;;;;;;8.23;1.92;;;;;;;;;;4893997;29;20036;-62
2022/07/10 07:58:22;;;;;;;6.47;1.70;;;;;;;;;;4899497;29;20061;-64
2022/07/10 08:00:47;;;;;;;5.55;1.90;;;;;;;;;;4894662;29;20044;-63
2022/07/10 08:03:12;;;;;;;8.55;1.95;;;;;;;;;;4881252;29;20043;-63
2022/07/10 08:05:38;;;;;;;7.20;2.00;;;;;;;;;;4894056;29;20037;-64
2022/07/10 08:08:08;;;;;;;7.40;1.80;;;;;;;;;;4898234;29;20041;-64
2022/07/10 08:10:34;;;;;;;7.82;1.80;;;;;;;;;;4899634;29;20165;-64
2022/07/10 08:13:00;;;;;;;7.47;2.08;;;;;;;;;;4895296;29;20055;-62
2022/07/10 08:15:25;;;;;;;7.35;1.60;;;;;;;;;;4890997;29;20454;-65
2022/07/10 08:17:56;;;;;;;4.25;1.50;;;;;;;;;;4881985;29;20032;-64
2022/07/10 08:20:23;;;;;;;4.13;1.45;;;;;;;;;;4899329;29;20104;-64
2022/07/10 08:22:49;;;;;;;9.48;1.85;;;;;;;;;;4894459;29;20050;-63
2022/07/10 08:25:15;;;;;;;9.38;1.98;;;;;;;;;;4896087;29;20040;-63
2022/07/10 08:27:40;;;;;;;5.78;1.83;;;;;;;;;;4892435;29;20036;-63
2022/07/10 08:30:08;;;;;;;6.50;1.80;;;;;;;;;;4881048;29;20037;-63
2022/07/10 08:32:35;;;;;;;7.25;1.77;;;;;;;;;;4887922;29;20040;-63
2022/07/10 08:35:01;;;;;;;5.95;1.65;;;;;;;;;;4864859;29;20053;-63
2022/07/10 08:37:26;;;;;;;9.20;2.15;;;;;;;;;;4894844;29;20029;-65
2022/07/10 08:39:52;;;;;;;7.35;1.80;;;;;;;;;;4886670;29;20482;-62
2022/07/10 08:42:18;;;;;;;6.43;1.98;;;;;;;;;;4883255;29;20123;-65
2022/07/10 08:44:44;;;;;;;10.52;2.10;;;;;;;;;;4896199;29;20032;-64
2022/07/10 08:47:11;;;;;;;9.10;2.08;;;;;;;;;;4898007;29;20066;-64
2022/07/10 08:49:37;;;;;;;6.72;2.30;;;;;;;;;;4898500;29;20466;-63
2022/07/10 08:52:08;;;;;;;5.88;2.13;;;;;;;;;;4895853;29;20074;-63
2022/07/10 08:54:35;;;;;;;8.63;2.55;;;;;;;;;;4895353;29;20036;-63
2022/07/10 08:57:02;;;;;;;5.60;2.40;;;;;;;;;;4882341;29;20056;-64
2022/07/10 08:59:29;;;;;;;8.98;2.60;;;;;;;;;;4879443;29;20036;-64
2022/07/10 09:01:55;;;;;;;5.90;2.35;;;;;;;;;;4875468;29;20033;-63
2022/07/10 09:04:23;;;;;;;6.82;2.67;;;;;;;;;;4893054;29;20036;-64
2022/07/10 09:06:49;;;;;;;8.43;2.47;;;;;;;;;;4896441;29;20052;-62
2022/07/10 09:09:14;;;;;;;7.13;2.20;;;;;;;;;;4880253;29;20036;-62
2022/07/10 09:11:42;;;;;;;10.35;2.53;;;;;;;;;;4894257;29;20533;-63
2022/07/10 09:14:11;;;;;;;8.27;2.65;;;;;;;;;;4883975;29;20032;-64
2022/07/10 09:16:38;;;;;;;4.93;2.45;;;;;;;;;;4887325;29;20041;-63
2022/07/10 09:19:25;;;;;;;7.57;2.63;;;;;;;;;;4878931;29;20037;-63
2022/07/10 09:22:04;;;;;;;6.22;2.30;;;;;;;;;;4898171;29;20430;-63
2022/07/10 09:24:36;;;;;;;5.80;2.20;;;;;;;;;;4895662;29;20032;-64
2022/07/10 09:27:03;;;;;;;7.53;2.70;;;;;;;;;;4886191;29;20494;-63
2022/07/10 09:29:32;;;;;;;8.27;2.85;;;;;;;;;;4885348;29;20597;-64
2022/07/10 09:32:00;;;;;;;6.93;2.42;;;;;;;;;;4898679;29;20151;-63
2022/07/10 09:34:36;;;;;;;6.85;2.85;;;;;;;;;;4897515;29;20118;-63
2022/07/10 09:37:21;;;;;;;5.85;2.70;;;;;;;;;;4893203;29;20089;-64
2022/07/10 09:39:53;;;;;;;5.85;3.22;;;;;;;;;;4888182;29;20048;-64
2022/07/10 09:42:42;;;;;;;8.32;3.60;;;;;;;;;;4887550;29;20045;-64
2022/07/10 09:45:15;;;;;;;8.07;3.70;;;;;;;;;;4878793;29;20127;-63
2022/07/10 09:48:07;;;;;;;8.57;3.22;;;;;;;;;;4878722;29;20392;-63
2022/07/10 09:50:36;;;;;;;7.40;3.15;;;;;;;;;;4890272;29;20057;-63
2022/07/10 09:53:07;;;;;;;6.60;2.38;;;;;;;;;;4886213;29;20124;-63
2022/07/10 09:55:34;;;;;;;7.75;2.70;;;;;;;;;;4887465;29;20036;-62
2022/07/10 09:58:01;;;;;;;5.88;2.53;;;;;;;;;;4898190;29;20028;-63
2022/07/10 10:00:45;;;;;;;6.05;2.58;;;;;;;;;;4892634;29;20045;-63
2022/07/10 10:03:11;;;;;;;4.80;2.13;;;;;;;;;;4891182;29;20040;-63
2022/07/10 10:05:54;;;;;;;6.45;2.70;;;;;;;;;;4891350;29;20051;-63
2022/07/10 10:08:24;;;;;;;6.43;2.90;;;;;;;;;;4886614;29;20132;-63
2022/07/10 10:10:51;;;;;;;7.50;3.00;;;;;;;;;;4873173;29;20052;-64
2022/07/10 10:13:19;;;;;;;9.57;3.00;;;;;;;;;;4862503;29;20029;-64
2022/07/10 10:15:47;;;;;;;8.90;3.17;;;;;;;;;;4889957;29;20082;-64
2022/07/10 10:18:14;;;;;;;6.47;3.33;;;;;;;;;;4890754;29;20120;-63
2022/07/10 10:20:44;;;;;;;7.68;3.22;;;;;;;;;;4869243;29;20454;-63
2022/07/10 10:23:11;;;;;;;7.68;3.38;;;;;;;;;;4887775;29;20046;-62
2022/07/10 10:25:37;;;;;;;6.68;3.00;;;;;;;;;;4877169;29;20111;-62
2022/07/10 10:28:06;;;;;;;8.00;3.70;;;;;;;;;;4885632;29;20470;-62
2022/07/10 10:30:32;;;;;;;8.90;3.38;;;;;;;;;;4885039;29;20033;-61
2022/07/10 10:32:57;;;;;;;8.00;3.45;;;;;;;;;;4886793;29;20047;-62
2022/07/10 10:35:49;;;;;;;9.05;3.25;;;;;;;;;;4850920;29;20059;-63
2022/07/10 10:38:18;;;;;;;7.63;3.65;;;;;;;;;;4888373;29;20058;-63
2022/07/10 10:40:43;;;;;;;7.68;3.75;;;;;;;;;;4876497;29;20040;-63
2022/07/10 10:43:23;;;;;;;9.32;3.72;;;;;;;;;;4888224;29;20047;-63
2022/07/10 10:45:48;;;;;;;9.38;3.97;;;;;;;;;;4874895;29;20044;-63
2022/07/10 10:48:16;;;;;;;8.52;4.13;;;;;;;;;;4897312;29;20032;-63
2022/07/10 10:50:52;;;;;;;9.30;5.15;;;;;;;;;;4891252;29;20037;-62
2022/07/10 10:53:20;;;;;;;8.65;6.28;;;;;;;;;;4862172;29;20060;-61
2022/07/10 10:56:07;;;;;;;8.07;5.20;;;;;;;;;;4861682;29;20498;-61
2022/07/10 10:58:44;;;;;;;9.68;5.55;;;;;;;;;;4895191;29;20056;-62
2022/07/10 11:01:21;;;;;;;10.95;6.13;;;;;;;;;;4873950;29;20029;-63
2022/07/10 11:04:13;;;;;;;10.73;5.95;;;;;;;;;;4877587;29;20025;-62
2022/07/10 11:06:49;;;;;;;8.73;5.63;;;;;;;;;;4883978;29;20045;-61
2022/07/10 11:09:29;;;;;;;7.13;4.90;;;;;;;;;;4896817;29;20032;-63
2022/07/10 11:12:05;;;;;;;7.10;4.60;;;;;;;;;;4893397;29;20048;-63
2022/07/10 11:14:31;;;;;;;4.88;3.10;;;;;;;;;;4895467;29;20059;-62
2022/07/10 11:16:57;;;;;;;4.93;3.00;;;;;;;;;;4896301;29;20032;-62
2022/07/10 11:19:28;;;;;;;7.28;3.22;;;;;;;;;;4894959;29;20088;-63
2022/07/10 11:22:10;;;;;;;5.13;3.40;;;;;;;;;;4876005;29;20033;-62
2022/07/10 11:24:39;;;;;;;6.65;3.50;;;;;;;;;;4873596;29;20040;-62
2022/07/10 11:27:23;;;;;;;7.57;3.13;;;;;;;;;;4876718;29;20478;-61
2022/07/10 11:29:56;;;;;;;5.22;3.08;;;;;;;;;;4880566;29;20048;-61
2022/07/10 11:32:22;;;;;;;4.70;3.17;;;;;;;;;;4895664;29;20035;-62
2022/07/10 11:34:48;;;;;;;4.60;2.60;;;;;;;;;;4885964;29;20044;-62
2022/07/10 11:37:17;;;;;;;4.97;3.22;;;;;;;;;;4878675;29;20028;-63
2022/07/10 11:39:43;;;;;;;5.05;2.72;;;;;;;;;;4892606;29;20045;-62
2022/07/10 11:42:08;;;;;;;6.00;2.60;;;;;;;;;;4894424;29;20226;-63
2022/07/10 11:44:34;;;;;;;5.28;2.50;;;;;;;;;;4892797;29;20363;-62
2022/07/10 11:47:00;;;;;;;5.50;2.60;;;;;;;;;;4876706;29;20112;-62
2022/07/10 11:49:27;;;;;;;4.50;2.60;;;;;;;;;;4890179;29;20044;-62
2022/07/10 11:51:53;;;;;;;4.95;3.20;;;;;;;;;;4893098;29;20056;-62
2022/07/10 11:54:19;;;;;;;5.43;3.00;;;;;;;;;;4879125;29;20072;-67
2022/07/10 11:56:51;;;;;;;5.55;3.10;;;;;;;;;;4893769;29;20075;-65
2022/07/10 11:59:19;;;;;;;4.55;2.85;;;;;;;;;;4877517;29;20033;-65
2022/07/10 12:01:51;;;;;;;3.67;2.10;;;;;;;;;;4889983;29;20056;-64
2022/07/10 12:04:25;;;;;;;2.70;2.20;;;;;;;;;;4877941;29;20033;-65
2022/07/10 12:06:53;;;;;;;2.20;2.00;;;;;;;;;;4891267;29;20397;-64
2022/07/10 12:09:20;;;;;;;1.83;1.70;;;;;;;;;;4894801;29;20045;-64
2022/07/10 12:12:00;;;;;;;2.40;1.80;;;;;;;;;;4892397;29;20486;-64
2022/07/10 12:14:26;;;;;;;2.67;1.83;;;;;;;;;;4895327;29;20024;-66
2022/07/10 12:16:53;;;;;;;3.53;2.80;;;;;;;;;;4874896;29;20472;-64
2022/07/10 12:19:31;;;;;;;4.85;2.60;;;;;;;;;;4876539;29;20041;-63
2022/07/10 12:21:58;;;;;;;2.53;2.20;;;;;;;;;;4862716;29;20048;-65
2022/07/10 12:24:24;;;;;;;2.47;2.15;;;;;;;;;;4879059;29;20025;-64
2022/07/10 12:26:52;;;;;;;3.75;3.10;;;;;;;;;;4881529;29;20176;-64
2022/07/10 12:29:24;;;;;;;4.43;3.47;;;;;;;;;;4894270;29;20043;-65
2022/07/10 12:31:54;;;;;;;4.32;3.38;;;;;;;;;;4890100;29;20589;-64
2022/07/10 12:34:21;;;;;;;6.93;3.90;;;;;;;;;;4896111;29;20036;-65
2022/07/10 12:36:52;;;;;;;6.32;4.63;;;;;;;;;;4883288;29;20036;-64
2022/07/10 12:39:22;;;;;;;4.57;3.75;;;;;;;;;;4892534;29;20039;-65
2022/07/10 12:41:56;;;;;;;5.60;4.20;;;;;;;;;;4886574;29;20446;-65
2022/07/10 12:44:41;;;;;;;5.70;3.90;;;;;;;;;;4894328;29;20043;-65
2022/07/10 12:47:14;;;;;;;6.30;4.22;;;;;;;;;;4872930;29;20336;-63
2022/07/10 12:49:56;;;;;;;5.78;4.55;;;;;;;;;;4882166;29;20055;-65
2022/07/10 12:52:35;;;;;;;5.93;4.78;;;;;;;;;;4879887;29;20430;-64
2022/07/10 12:55:13;;;;;;;7.43;4.20;;;;;;;;;;4870834;29;20036;-64
2022/07/10 12:58:08;;;;;;;5.72;2.70;;;;;;;;;;4897394;29;20119;-64
2022/07/10 13:00:43;;;;;;;4.43;2.88;;;;;;;;;;4895673;29;20136;-64
2022/07/10 13:03:17;;;;;;;3.53;2.70;;;;;;;;;;4893624;29;20470;-64
2022/07/10 13:05:43;;;;;;;4.75;2.80;;;;;;;;;;4894904;29;20041;-63
2022/07/10 13:08:21;;;;;;;4.93;3.28;;;;;;;;;;4897135;29;20047;-64
2022/07/10 13:10:58;;;;;;;4.88;3.38;;;;;;;;;;4885459;29;20037;-65
2022/07/10 13:13:24;;;;;;;4.68;2.80;;;;;;;;;;4845047;29;20490;-66
2022/07/10 13:15:50;;;;;;;4.80;3.60;;;;;;;;;;4891472;29;20044;-65
2022/07/10 13:18:24;;;;;;;4.57;3.10;;;;;;;;;;4895284;29;20036;-66
2022/07/10 13:20:52;;;;;;;4.43;2.83;;;;;;;;;;4898155;29;20346;-64
2022/07/10 13:23:21;;;;;;;4.43;2.15;;;;;;;;;;4895938;29;20036;-63
2022/07/10 13:25:48;;;;;;;5.28;2.33;;;;;;;;;;4880622;29;20035;-63
2022/07/10 13:28:16;;;;;;;3.90;2.20;;;;;;;;;;4887328;29;20359;-63
2022/07/10 13:30:41;;;;;;;3.60;1.60;;;;;;;;;;4898038;29;20024;-62
2022/07/10 13:33:07;;;;;;;4.07;1.70;;;;;;;;;;4896036;29;20538;-63
2022/07/10 13:35:33;;;;;;;4.22;1.80;;;;;;;;;;4898542;29;20400;-64
2022/07/10 13:38:00;;;;;;;3.28;1.70;;;;;;;;;;4892802;29;20149;-64
2022/07/10 13:40:27;;;;;;;3.85;2.00;;;;;;;;;;4896260;29;20040;-64
2022/07/10 13:42:53;;;;;;;4.80;2.15;;;;;;;;;;4865417;29;20067;-64
2022/07/10 13:45:19;;;;;;;4.75;1.67;;;;;;;;;;4881883;29;20040;-64
2022/07/10 13:47:44;;;;;;;2.45;1.50;;;;;;;;;;4877082;29;20060;-63
2022/07/10 13:50:10;;;;;;;2.90;1.67;;;;;;;;;;4898166;29;20512;-63
2022/07/10 13:52:35;;;;;;;3.00;1.50;;;;;;;;;;4893064;29;20049;-62
2022/07/10 13:55:00;;;;;;;3.58;1.60;;;;;;;;;;4885272;29;20032;-61
2022/07/10 13:57:26;;;;;;;3.83;1.67;;;;;;;;;;4875943;29;20048;-63
2022/07/10 13:59:53;;;;;;;4.68;1.80;;;;;;;;;;4882828;29;20497;-61
2022/07/10 14:02:19;;;;;;;6.40;1.85;;;;;;;;;;4866216;29;20036;-61
2022/07/10 14:04:45;;;;;;;3.25;1.77;;;;;;;;;;4896091;29;20098;-62
2022/07/10 14:07:10;;;;;;;3.55;1.80;;;;;;;;;;4893805;29;20033;-62
2022/07/10 14:09:36;;;;;;;3.13;1.80;;;;;;;;;;4892370;29;20040;-61
2022/07/10 14:12:01;;;;;;;2.95;2.03;;;;;;;;;;4894997;29;20119;-61
2022/07/10 14:14:27;;;;;;;2.55;1.67;;;;;;;;;;4897649;29;20462;-61
2022/07/10 14:16:52;;;;;;;5.13;2.05;;;;;;;;;;4890874;29;20032;-61
2022/07/10 14:19:18;;;;;;;4.80;2.40;;;;;;;;;;4888852;29;20055;-62
2022/07/10 14:21:43;;;;;;;4.10;2.30;;;;;;;;;;4884264;29;20029;-62
2022/07/10 14:24:09;;;;;;;3.13;2.10;;;;;;;;;;4882542;29;20483;-61
2022/07/10 14:26:35;;;;;;;6.25;2.40;;;;;;;;;;4895570;29;20063;-62
2022/07/10 14:29:02;;;;;;;4.43;2.25;;;;;;;;;;4885204;29;20087;-61
2022/07/10 14:31:28;;;;;;;4.80;2.40;;;;;;;;;;4882633;29;20482;-61
2022/07/10 14:33:53;;;;;;;4.38;2.47;;;;;;;;;;4889642;29;20029;-61
2022/07/10 14:36:19;;;;;;;6.78;2.78;;;;;;;;;;4879340;29;20029;-61
2022/07/10 14:38:44;;;;;;;4.60;2.67;;;;;;;;;;4877164;29;20119;-61
2022/07/10 14:41:10;;;;;;;5.43;2.60;;;;;;;;;;4895153;29;20033;-61
2022/07/10 14:43:36;;;;;;;5.03;2.63;;;;;;;;;;4897181;29;20036;-62
2022/07/10 14:46:03;;;;;;;3.50;2.20;;;;;;;;;;4887596;29;20052;-62
2022/07/10 14:48:34;;;;;;;4.15;2.45;;;;;;;;;;4876879;29;20119;-61
2022/07/10 14:51:00;;;;;;;3.47;2.30;;;;;;;;;;4875918;29;20104;-61
2022/07/10 14:53:26;;;;;;;6.10;2.92;;;;;;;;;;4876409;29;20136;-62